Terminal Aerodrome Forecast
Issued by NWS

Home | Current Version | Previous Version | Text Only | Print | Product List | Glossary On
Versions: 1 2 3 4 5 6 7 8 9 10 11 12 13
000
FTAK31 PAJN 060500
TAFASI
TAF
PASI 060523Z 0606/0706 32014KT P6SM SCT200
     FM060900 34005KT P6SM FEW150
     FM061900 27008KT P6SM FEW150
     FM070200 27004KT P6SM BKN100=

USA.gov is the U.S. government's official web portal to all federal, state and local government web resources and services.